SAWG/RGL METAR and TAF weather

Enter ICAO airport designator
Station Type Date Time Source
SAWG METAR 2020/11/27 02:00 UTC NOAA

SAWG 270200Z 27018KT 9999 -RA SCT030 BKN070 14/04 Q0980


Station Type Date Time Source
SAWG Decoded METAR 2020/11/27 02:00 UTC NOAA

Rio Gallegos Aerodrome, Argentina (SAWG) 51-37S 069-17W 19M
Nov 26, 2020 - 09:00 PM EST / 2020.11.27 0200 UTC
Wind: from the W (270 degrees) at 21 MPH (18 KT):0
Visibility: greater than 7 mile(s):0
Sky conditions: mostly cloudy
Weather: light rain
Temperature: 57 F (14 C)
Dew Point: 39 F (4 C)
Relative Humidity: 50%
Pressure (altimeter): 28.94 in. Hg (0980 hPa)
ob: SAWG 270200Z 27018KT 9999 -RA SCT030 BKN070 14/04 Q0980
cycle: 2

Station Type Date Time Source
SAWG TAF 2020/11/27 00:00 UTC NOAA

TAF SAWG 262300Z 2700/2724 34020G30KT 9999 -RA BKN030 OVC090 TX13/2718Z TN06/2711Z
BECMG 2704/2706 CAVOK
BECMG 2707/2709 27025G40KT 9999 BKN030
BECMG 2714/2716 27035G45KT

Example: see airport list